sensor_id;sensor_type;location;lat;lon;timestamp;temperature;humidity
70184;DHT22;57554;51.546;6.776;2023-05-07T00:00:13;16.90;67.20
70184;DHT22;57554;51.546;6.776;2023-05-07T00:02:43;16.90;67.30
70184;DHT22;57554;51.546;6.776;2023-05-07T00:05:12;16.90;67.40
70184;DHT22;57554;51.546;6.776;2023-05-07T00:07:43;16.90;67.60
70184;DHT22;57554;51.546;6.776;2023-05-07T00:10:15;16.90;67.70
70184;DHT22;57554;51.546;6.776;2023-05-07T00:12:43;16.80;67.80
70184;DHT22;57554;51.546;6.776;2023-05-07T00:15:10;16.80;67.90
70184;DHT22;57554;51.546;6.776;2023-05-07T00:17:45;16.80;68.00
70184;DHT22;57554;51.546;6.776;2023-05-07T00:20:16;16.80;68.20
70184;DHT22;57554;51.546;6.776;2023-05-07T00:22:48;16.80;68.00
70184;DHT22;57554;51.546;6.776;2023-05-07T00:25:14;16.80;68.10
70184;DHT22;57554;51.546;6.776;2023-05-07T00:27:45;16.80;68.20
70184;DHT22;57554;51.546;6.776;2023-05-07T00:30:13;16.80;68.20
70184;DHT22;57554;51.546;6.776;2023-05-07T00:32:41;16.80;68.20
70184;DHT22;57554;51.546;6.776;2023-05-07T00:35:16;16.80;68.20
70184;DHT22;57554;51.546;6.776;2023-05-07T00:37:42;16.80;68.30
70184;DHT22;57554;51.546;6.776;2023-05-07T00:40:18;16.70;68.20
70184;DHT22;57554;51.546;6.776;2023-05-07T00:42:54;16.70;68.20
70184;DHT22;57554;51.546;6.776;2023-05-07T00:45:46;16.70;68.30
70184;DHT22;57554;51.546;6.776;2023-05-07T00:48:12;16.70;68.30
70184;DHT22;57554;51.546;6.776;2023-05-07T00:50:49;16.70;68.00
70184;DHT22;57554;51.546;6.776;2023-05-07T00:53:17;16.70;68.20
70184;DHT22;57554;51.546;6.776;2023-05-07T00:55:46;16.70;68.20
70184;DHT22;57554;51.546;6.776;2023-05-07T00:58:12;16.70;68.10
70184;DHT22;57554;51.546;6.776;2023-05-07T01:00:41;16.60;68.20
70184;DHT22;57554;51.546;6.776;2023-05-07T01:03:07;16.60;68.20
70184;DHT22;57554;51.546;6.776;2023-05-07T01:05:35;16.60;68.40
70184;DHT22;57554;51.546;6.776;2023-05-07T01:08:05;16.60;68.50
70184;DHT22;57554;51.546;6.776;2023-05-07T01:10:31;16.60;68.60
70184;DHT22;57554;51.546;6.776;2023-05-07T01:12:58;16.60;68.50
70184;DHT22;57554;51.546;6.776;2023-05-07T01:15:31;16.60;68.50
70184;DHT22;57554;51.546;6.776;2023-05-07T01:17:59;16.60;68.60
70184;DHT22;57554;51.546;6.776;2023-05-07T01:20:36;16.50;68.50
70184;DHT22;57554;51.546;6.776;2023-05-07T01:23:11;16.50;68.80
70184;DHT22;57554;51.546;6.776;2023-05-07T01:25:40;16.50;68.80
70184;DHT22;57554;51.546;6.776;2023-05-07T01:28:06;16.50;68.80
70184;DHT22;57554;51.546;6.776;2023-05-07T01:30:36;16.50;68.90
70184;DHT22;57554;51.546;6.776;2023-05-07T01:33:13;16.50;69.00
70184;DHT22;57554;51.546;6.776;2023-05-07T01:35:42;16.50;69.10
70184;DHT22;57554;51.546;6.776;2023-05-07T01:38:12;16.50;69.10
70184;DHT22;57554;51.546;6.776;2023-05-07T01:40:44;16.50;69.10
70184;DHT22;57554;51.546;6.776;2023-05-07T01:43:13;16.40;69.10
70184;DHT22;57554;51.546;6.776;2023-05-07T01:45:44;16.40;69.20
70184;DHT22;57554;51.546;6.776;2023-05-07T01:48:19;16.40;69.20
70184;DHT22;57554;51.546;6.776;2023-05-07T01:50:47;16.40;69.20
70184;DHT22;57554;51.546;6.776;2023-05-07T01:53:13;16.40;69.30
70184;DHT22;57554;51.546;6.776;2023-05-07T01:55:39;16.40;69.50
70184;DHT22;57554;51.546;6.776;2023-05-07T01:58:08;16.30;69.70
70184;DHT22;57554;51.546;6.776;2023-05-07T02:00:36;16.30;69.80
70184;DHT22;57554;51.546;6.776;2023-05-07T02:03:07;16.30;69.80
70184;DHT22;57554;51.546;6.776;2023-05-07T02:05:42;16.20;69.70
70184;DHT22;57554;51.546;6.776;2023-05-07T02:08:11;16.30;69.70
70184;DHT22;57554;51.546;6.776;2023-05-07T02:10:37;16.30;69.80
70184;DHT22;57554;51.546;6.776;2023-05-07T02:13:05;16.30;69.70
70184;DHT22;57554;51.546;6.776;2023-05-07T02:15:41;16.30;69.80
70184;DHT22;57554;51.546;6.776;2023-05-07T02:18:11;16.30;69.90
70184;DHT22;57554;51.546;6.776;2023-05-07T02:20:42;16.30;69.80
70184;DHT22;57554;51.546;6.776;2023-05-07T02:23:11;16.20;69.80
70184;DHT22;57554;51.546;6.776;2023-05-07T02:25:39;16.20;69.70
70184;DHT22;57554;51.546;6.776;2023-05-07T02:28:12;16.20;69.80
70184;DHT22;57554;51.546;6.776;2023-05-07T02:30:41;16.20;69.90
70184;DHT22;57554;51.546;6.776;2023-05-07T02:33:09;16.20;69.60
70184;DHT22;57554;51.546;6.776;2023-05-07T02:35:37;16.20;69.80
70184;DHT22;57554;51.546;6.776;2023-05-07T02:38:08;16.10;70.00
70184;DHT22;57554;51.546;6.776;2023-05-07T02:40:38;16.10;70.20
70184;DHT22;57554;51.546;6.776;2023-05-07T02:43:05;16.10;70.20
70184;DHT22;57554;51.546;6.776;2023-05-07T02:45:32;16.10;70.20
70184;DHT22;57554;51.546;6.776;2023-05-07T02:47:58;16.10;70.20
70184;DHT22;57554;51.546;6.776;2023-05-07T02:50:24;16.10;70.20
70184;DHT22;57554;51.546;6.776;2023-05-07T02:52:50;16.10;70.30
70184;DHT22;57554;51.546;6.776;2023-05-07T02:55:19;16.10;70.40
70184;DHT22;57554;51.546;6.776;2023-05-07T02:57:50;16.00;70.60
70184;DHT22;57554;51.546;6.776;2023-05-07T03:00:19;16.00;70.90
70184;DHT22;57554;51.546;6.776;2023-05-07T03:02:48;16.00;70.90
70184;DHT22;57554;51.546;6.776;2023-05-07T03:05:24;16.00;70.80
70184;DHT22;57554;51.546;6.776;2023-05-07T03:07:50;16.00;70.90
70184;DHT22;57554;51.546;6.776;2023-05-07T03:10:34;16.00;70.90
70184;DHT22;57554;51.546;6.776;2023-05-07T03:13:07;16.00;71.00
70184;DHT22;57554;51.546;6.776;2023-05-07T03:15:36;16.00;71.00
70184;DHT22;57554;51.546;6.776;2023-05-07T03:18:07;16.00;71.10
70184;DHT22;57554;51.546;6.776;2023-05-07T03:20:32;16.00;71.00
70184;DHT22;57554;51.546;6.776;2023-05-07T03:23:03;16.00;71.00
70184;DHT22;57554;51.546;6.776;2023-05-07T03:25:32;16.00;71.10
70184;DHT22;57554;51.546;6.776;2023-05-07T03:28:02;16.00;71.20
70184;DHT22;57554;51.546;6.776;2023-05-07T03:30:28;16.00;71.30
70184;DHT22;57554;51.546;6.776;2023-05-07T03:32:55;16.00;71.20
70184;DHT22;57554;51.546;6.776;2023-05-07T03:35:24;16.00;71.20
70184;DHT22;57554;51.546;6.776;2023-05-07T03:37:51;15.90;71.20
70184;DHT22;57554;51.546;6.776;2023-05-07T03:40:37;15.90;71.10
70184;DHT22;57554;51.546;6.776;2023-05-07T03:43:06;15.90;71.20
70184;DHT22;57554;51.546;6.776;2023-05-07T03:45:32;15.90;71.30
70184;DHT22;57554;51.546;6.776;2023-05-07T03:47:58;15.90;71.30
70184;DHT22;57554;51.546;6.776;2023-05-07T03:50:27;15.90;71.30
70184;DHT22;57554;51.546;6.776;2023-05-07T03:53:01;15.90;71.30
70184;DHT22;57554;51.546;6.776;2023-05-07T03:55:27;15.90;71.30
70184;DHT22;57554;51.546;6.776;2023-05-07T03:57:56;15.90;71.40
70184;DHT22;57554;51.546;6.776;2023-05-07T04:00:22;15.90;71.50
70184;DHT22;57554;51.546;6.776;2023-05-07T04:02:48;15.80;71.50
70184;DHT22;57554;51.546;6.776;2023-05-07T04:05:16;15.90;71.40
70184;DHT22;57554;51.546;6.776;2023-05-07T04:07:42;15.80;71.50
70184;DHT22;57554;51.546;6.776;2023-05-07T04:10:09;15.80;71.50
70184;DHT22;57554;51.546;6.776;2023-05-07T04:12:35;15.80;71.40
70184;DHT22;57554;51.546;6.776;2023-05-07T04:15:01;15.80;71.50
70184;DHT22;57554;51.546;6.776;2023-05-07T04:17:30;15.80;71.60
70184;DHT22;57554;51.546;6.776;2023-05-07T04:20:08;15.80;71.60
70184;DHT22;57554;51.546;6.776;2023-05-07T04:22:34;15.80;71.60
70184;DHT22;57554;51.546;6.776;2023-05-07T04:25:00;15.80;71.60
70184;DHT22;57554;51.546;6.776;2023-05-07T04:27:28;15.80;71.60
70184;DHT22;57554;51.546;6.776;2023-05-07T04:29:57;15.80;71.80
70184;DHT22;57554;51.546;6.776;2023-05-07T04:32:23;15.70;72.00
70184;DHT22;57554;51.546;6.776;2023-05-07T04:34:53;15.70;71.90
70184;DHT22;57554;51.546;6.776;2023-05-07T04:37:19;15.80;72.00
70184;DHT22;57554;51.546;6.776;2023-05-07T04:39:44;15.80;72.00
70184;DHT22;57554;51.546;6.776;2023-05-07T04:42:19;15.80;72.00
70184;DHT22;57554;51.546;6.776;2023-05-07T04:44:45;15.80;72.10
70184;DHT22;57554;51.546;6.776;2023-05-07T04:47:14;15.90;72.00
70184;DHT22;57554;51.546;6.776;2023-05-07T04:49:40;15.90;72.00
70184;DHT22;57554;51.546;6.776;2023-05-07T04:52:09;15.90;71.90
70184;DHT22;57554;51.546;6.776;2023-05-07T04:54:35;15.90;72.10
70184;DHT22;57554;51.546;6.776;2023-05-07T04:57:03;15.90;72.10
70184;DHT22;57554;51.546;6.776;2023-05-07T04:59:37;15.90;72.10
70184;DHT22;57554;51.546;6.776;2023-05-07T05:02:03;15.90;72.10
70184;DHT22;57554;51.546;6.776;2023-05-07T05:04:29;15.90;72.00
70184;DHT22;57554;51.546;6.776;2023-05-07T05:06:58;15.90;71.90
70184;DHT22;57554;51.546;6.776;2023-05-07T05:09:28;15.90;72.10
70184;DHT22;57554;51.546;6.776;2023-05-07T05:11:56;15.80;72.20
70184;DHT22;57554;51.546;6.776;2023-05-07T05:14:30;15.80;72.20
70184;DHT22;57554;51.546;6.776;2023-05-07T05:17:01;15.90;72.20
70184;DHT22;57554;51.546;6.776;2023-05-07T05:19:27;15.90;72.20
70184;DHT22;57554;51.546;6.776;2023-05-07T05:22:01;15.90;72.10
70184;DHT22;57554;51.546;6.776;2023-05-07T05:24:38;15.90;72.00
70184;DHT22;57554;51.546;6.776;2023-05-07T05:27:07;16.00;72.00
70184;DHT22;57554;51.546;6.776;2023-05-07T05:29:33;16.00;72.10
70184;DHT22;57554;51.546;6.776;2023-05-07T05:31:59;16.20;72.20
70184;DHT22;57554;51.546;6.776;2023-05-07T05:34:38;16.40;72.20
70184;DHT22;57554;51.546;6.776;2023-05-07T05:37:16;16.50;72.10
70184;DHT22;57554;51.546;6.776;2023-05-07T05:40:06;16.60;72.10
70184;DHT22;57554;51.546;6.776;2023-05-07T05:42:32;16.80;71.90
70184;DHT22;57554;51.546;6.776;2023-05-07T05:45:01;16.90;71.70
70184;DHT22;57554;51.546;6.776;2023-05-07T05:47:44;17.00;71.60
70184;DHT22;57554;51.546;6.776;2023-05-07T05:50:13;17.20;71.50
70184;DHT22;57554;51.546;6.776;2023-05-07T05:52:39;17.30;71.10
70184;DHT22;57554;51.546;6.776;2023-05-07T05:55:08;17.40;70.80
70184;DHT22;57554;51.546;6.776;2023-05-07T05:57:38;17.50;70.60
70184;DHT22;57554;51.546;6.776;2023-05-07T06:00:16;17.60;70.50
70184;DHT22;57554;51.546;6.776;2023-05-07T06:02:47;17.70;70.60
70184;DHT22;57554;51.546;6.776;2023-05-07T06:05:41;17.80;70.40
70184;DHT22;57554;51.546;6.776;2023-05-07T06:08:13;18.00;69.90
70184;DHT22;57554;51.546;6.776;2023-05-07T06:10:44;18.10;69.50
70184;DHT22;57554;51.546;6.776;2023-05-07T06:13:12;18.20;69.40
70184;DHT22;57554;51.546;6.776;2023-05-07T06:15:43;18.30;69.10
70184;DHT22;57554;51.546;6.776;2023-05-07T06:18:09;18.40;68.70
70184;DHT22;57554;51.546;6.776;2023-05-07T06:20:51;18.50;68.30
70184;DHT22;57554;51.546;6.776;2023-05-07T06:23:20;18.50;67.90
70184;DHT22;57554;51.546;6.776;2023-05-07T06:25:49;18.50;67.70
70184;DHT22;57554;51.546;6.776;2023-05-07T06:28:19;18.50;67.60
70184;DHT22;57554;51.546;6.776;2023-05-07T06:30:45;18.50;67.60
70184;DHT22;57554;51.546;6.776;2023-05-07T06:33:13;18.60;67.60
70184;DHT22;57554;51.546;6.776;2023-05-07T06:35:39;18.70;67.60
70184;DHT22;57554;51.546;6.776;2023-05-07T06:38:05;18.70;67.50
70184;DHT22;57554;51.546;6.776;2023-05-07T06:40:31;18.70;67.60
70184;DHT22;57554;51.546;6.776;2023-05-07T06:43:00;18.80;67.60
70184;DHT22;57554;51.546;6.776;2023-05-07T06:45:28;18.90;67.50
70184;DHT22;57554;51.546;6.776;2023-05-07T06:47:54;19.00;67.20
70184;DHT22;57554;51.546;6.776;2023-05-07T06:50:25;19.00;67.10
70184;DHT22;57554;51.546;6.776;2023-05-07T06:52:51;19.10;67.10
70184;DHT22;57554;51.546;6.776;2023-05-07T06:55:17;19.30;66.80
70184;DHT22;57554;51.546;6.776;2023-05-07T06:57:44;19.40;66.50
70184;DHT22;57554;51.546;6.776;2023-05-07T07:00:16;19.50;66.10
70184;DHT22;57554;51.546;6.776;2023-05-07T07:02:45;19.50;65.70
70184;DHT22;57554;51.546;6.776;2023-05-07T07:05:19;19.60;65.30
70184;DHT22;57554;51.546;6.776;2023-05-07T07:07:48;19.60;65.10
70184;DHT22;57554;51.546;6.776;2023-05-07T07:10:21;19.60;65.10
70184;DHT22;57554;51.546;6.776;2023-05-07T07:12:48;19.60;64.90
70184;DHT22;57554;51.546;6.776;2023-05-07T07:15:14;19.60;64.90
70184;DHT22;57554;51.546;6.776;2023-05-07T07:17:47;19.70;64.70
70184;DHT22;57554;51.546;6.776;2023-05-07T07:20:18;19.70;64.50
70184;DHT22;57554;51.546;6.776;2023-05-07T07:22:44;19.80;64.60
70184;DHT22;57554;51.546;6.776;2023-05-07T07:25:10;19.90;64.20
70184;DHT22;57554;51.546;6.776;2023-05-07T07:27:39;20.00;63.70
70184;DHT22;57554;51.546;6.776;2023-05-07T07:33:49;20.10;63.40
70184;DHT22;57554;51.546;6.776;2023-05-07T07:36:15;20.20;63.40
70184;DHT22;57554;51.546;6.776;2023-05-07T07:38:44;20.30;63.10
70184;DHT22;57554;51.546;6.776;2023-05-07T07:41:10;20.40;62.60
70184;DHT22;57554;51.546;6.776;2023-05-07T07:43:53;20.50;62.60
70184;DHT22;57554;51.546;6.776;2023-05-07T07:46:33;20.60;62.30
70184;DHT22;57554;51.546;6.776;2023-05-07T07:49:10;20.80;61.70
70184;DHT22;57554;51.546;6.776;2023-05-07T07:51:36;20.80;61.20
70184;DHT22;57554;51.546;6.776;2023-05-07T07:54:07;20.90;60.90
70184;DHT22;57554;51.546;6.776;2023-05-07T07:56:33;20.90;60.90
70184;DHT22;57554;51.546;6.776;2023-05-07T07:59:07;21.00;60.90
70184;DHT22;57554;51.546;6.776;2023-05-07T08:01:39;21.00;60.80
70184;DHT22;57554;51.546;6.776;2023-05-07T08:04:05;21.10;60.20
70184;DHT22;57554;51.546;6.776;2023-05-07T08:06:34;21.20;60.20
70184;DHT22;57554;51.546;6.776;2023-05-07T08:09:00;21.40;59.50
70184;DHT22;57554;51.546;6.776;2023-05-07T08:11:29;21.50;58.70
70184;DHT22;57554;51.546;6.776;2023-05-07T08:13:55;21.70;58.50
70184;DHT22;57554;51.546;6.776;2023-05-07T08:16:24;21.80;57.60
70184;DHT22;57554;51.546;6.776;2023-05-07T08:19:06;21.80;57.30
70184;DHT22;57554;51.546;6.776;2023-05-07T08:21:40;21.90;56.80
70184;DHT22;57554;51.546;6.776;2023-05-07T08:24:06;22.00;56.50
70184;DHT22;57554;51.546;6.776;2023-05-07T08:26:34;22.00;56.50
70184;DHT22;57554;51.546;6.776;2023-05-07T08:29:01;22.10;56.20
70184;DHT22;57554;51.546;6.776;2023-05-07T08:31:27;22.10;56.10
70184;DHT22;57554;51.546;6.776;2023-05-07T08:33:56;22.10;56.00
70184;DHT22;57554;51.546;6.776;2023-05-07T08:36:22;22.10;55.70
70184;DHT22;57554;51.546;6.776;2023-05-07T08:38:52;22.20;55.90
70184;DHT22;57554;51.546;6.776;2023-05-07T08:41:18;22.30;56.00
70184;DHT22;57554;51.546;6.776;2023-05-07T08:43:48;22.50;55.60
70184;DHT22;57554;51.546;6.776;2023-05-07T08:46:21;22.70;55.90
70184;DHT22;57554;51.546;6.776;2023-05-07T08:48:50;22.80;55.20
70184;DHT22;57554;51.546;6.776;2023-05-07T08:51:21;22.90;55.00
70184;DHT22;57554;51.546;6.776;2023-05-07T08:53:49;23.00;54.70
70184;DHT22;57554;51.546;6.776;2023-05-07T08:56:17;23.10;54.00
70184;DHT22;57554;51.546;6.776;2023-05-07T08:58:48;23.10;54.30
70184;DHT22;57554;51.546;6.776;2023-05-07T09:01:15;23.20;54.50
70184;DHT22;57554;51.546;6.776;2023-05-07T09:03:44;23.20;53.80
70184;DHT22;57554;51.546;6.776;2023-05-07T09:06:21;23.30;53.20
70184;DHT22;57554;51.546;6.776;2023-05-07T09:08:59;23.40;53.80
70184;DHT22;57554;51.546;6.776;2023-05-07T09:11:27;23.50;53.30
70184;DHT22;57554;51.546;6.776;2023-05-07T09:20:44;24.00;51.90
70184;DHT22;57554;51.546;6.776;2023-05-07T09:23:20;24.10;51.60
70184;DHT22;57554;51.546;6.776;2023-05-07T09:26:00;24.20;51.00
70184;DHT22;57554;51.546;6.776;2023-05-07T09:28:43;24.30;51.00
70184;DHT22;57554;51.546;6.776;2023-05-07T09:31:11;24.40;51.00
70184;DHT22;57554;51.546;6.776;2023-05-07T09:33:58;24.60;50.40
70184;DHT22;57554;51.546;6.776;2023-05-07T09:36:23;24.80;50.10
70184;DHT22;57554;51.546;6.776;2023-05-07T09:38:52;25.00;50.70
70184;DHT22;57554;51.546;6.776;2023-05-07T09:41:18;25.40;49.40
70184;DHT22;57554;51.546;6.776;2023-05-07T09:53:58;26.40;47.70
70184;DHT22;57554;51.546;6.776;2023-05-07T09:56:29;26.60;47.50
70184;DHT22;57554;51.546;6.776;2023-05-07T10:12:46;28.30;43.70
70184;DHT22;57554;51.546;6.776;2023-05-07T10:15:16;28.40;42.40
70184;DHT22;57554;51.546;6.776;2023-05-07T10:20:55;28.40;41.70
70184;DHT22;57554;51.546;6.776;2023-05-07T10:23:24;28.30;41.00
70184;DHT22;57554;51.546;6.776;2023-05-07T10:25:50;28.20;41.10
70184;DHT22;57554;51.546;6.776;2023-05-07T10:28:19;28.20;41.90
70184;DHT22;57554;51.546;6.776;2023-05-07T10:33:53;28.60;40.30
70184;DHT22;57554;51.546;6.776;2023-05-07T10:36:22;28.80;40.30
70184;DHT22;57554;51.546;6.776;2023-05-07T10:38:55;28.90;40.30
70184;DHT22;57554;51.546;6.776;2023-05-07T10:41:23;29.00;39.90
70184;DHT22;57554;51.546;6.776;2023-05-07T10:43:49;29.20;39.40
70184;DHT22;57554;51.546;6.776;2023-05-07T10:46:29;29.20;38.90
70184;DHT22;57554;51.546;6.776;2023-05-07T10:51:43;29.20;39.00
70184;DHT22;57554;51.546;6.776;2023-05-07T10:54:19;29.20;38.10
70184;DHT22;57554;51.546;6.776;2023-05-07T10:56:47;29.20;38.40
70184;DHT22;57554;51.546;6.776;2023-05-07T11:02:03;29.30;38.50
70184;DHT22;57554;51.546;6.776;2023-05-07T11:04:30;29.30;37.60
70184;DHT22;57554;51.546;6.776;2023-05-07T11:14:04;28.80;37.60
70184;DHT22;57554;51.546;6.776;2023-05-07T11:16:25;28.70;37.80
70184;DHT22;57554;51.546;6.776;2023-05-07T11:18:56;28.80;37.20
70184;DHT22;57554;51.546;6.776;2023-05-07T11:21:35;28.80;37.00
70184;DHT22;57554;51.546;6.776;2023-05-07T11:27:31;28.90;36.70
70184;DHT22;57554;51.546;6.776;2023-05-07T11:30:04;28.90;36.50
70184;DHT22;57554;51.546;6.776;2023-05-07T11:32:33;28.80;37.00
70184;DHT22;57554;51.546;6.776;2023-05-07T11:38:21;29.30;37.10
70184;DHT22;57554;51.546;6.776;2023-05-07T11:40:57;29.50;37.10
70184;DHT22;57554;51.546;6.776;2023-05-07T11:50:35;29.90;37.10
70184;DHT22;57554;51.546;6.776;2023-05-07T11:53:12;30.20;36.30
70184;DHT22;57554;51.546;6.776;2023-05-07T11:59:20;30.40;35.10
70184;DHT22;57554;51.546;6.776;2023-05-07T12:01:52;30.20;34.70
70184;DHT22;57554;51.546;6.776;2023-05-07T12:08:25;29.80;35.80
70184;DHT22;57554;51.546;6.776;2023-05-07T12:10:57;29.70;36.30
70184;DHT22;57554;51.546;6.776;2023-05-07T12:16:48;29.50;36.40
70184;DHT22;57554;51.546;6.776;2023-05-07T12:22:41;29.50;37.30
70184;DHT22;57554;51.546;6.776;2023-05-07T12:25:19;29.50;36.40
70184;DHT22;57554;51.546;6.776;2023-05-07T12:27:52;29.40;36.10
70184;DHT22;57554;51.546;6.776;2023-05-07T12:30:18;29.40;35.90
70184;DHT22;57554;51.546;6.776;2023-05-07T12:32:45;29.30;35.70
70184;DHT22;57554;51.546;6.776;2023-05-07T12:38:55;29.10;36.10
70184;DHT22;57554;51.546;6.776;2023-05-07T12:51:29;28.40;36.70
70184;DHT22;57554;51.546;6.776;2023-05-07T12:53:57;28.30;36.70
70184;DHT22;57554;51.546;6.776;2023-05-07T12:56:44;28.10;37.00
70184;DHT22;57554;51.546;6.776;2023-05-07T12:59:16;27.90;37.50
70184;DHT22;57554;51.546;6.776;2023-05-07T13:01:46;27.80;38.50
70184;DHT22;57554;51.546;6.776;2023-05-07T13:04:12;27.60;38.50
70184;DHT22;57554;51.546;6.776;2023-05-07T13:06:38;27.50;38.70
70184;DHT22;57554;51.546;6.776;2023-05-07T13:09:19;27.30;39.60
70184;DHT22;57554;51.546;6.776;2023-05-07T13:11:45;27.20;40.10
70184;DHT22;57554;51.546;6.776;2023-05-07T13:14:14;27.10;40.10
70184;DHT22;57554;51.546;6.776;2023-05-07T13:16:40;27.10;39.60
70184;DHT22;57554;51.546;6.776;2023-05-07T13:22:30;27.00;40.00
70184;DHT22;57554;51.546;6.776;2023-05-07T13:24:58;27.00;39.60
70184;DHT22;57554;51.546;6.776;2023-05-07T13:27:27;27.00;40.00
70184;DHT22;57554;51.546;6.776;2023-05-07T13:33:21;26.90;40.40
70184;DHT22;57554;51.546;6.776;2023-05-07T13:35:47;26.90;40.50
70184;DHT22;57554;51.546;6.776;2023-05-07T13:38:13;26.90;40.20
70184;DHT22;57554;51.546;6.776;2023-05-07T13:44:04;26.70;40.90
70184;DHT22;57554;51.546;6.776;2023-05-07T13:46:30;26.60;41.00
70184;DHT22;57554;51.546;6.776;2023-05-07T13:52:42;26.30;41.80
70184;DHT22;57554;51.546;6.776;2023-05-07T13:55:12;26.10;42.00
70184;DHT22;57554;51.546;6.776;2023-05-07T13:57:59;26.00;42.30
70184;DHT22;57554;51.546;6.776;2023-05-07T14:03:34;25.70;42.90
70184;DHT22;57554;51.546;6.776;2023-05-07T14:06:19;25.50;43.30
70184;DHT22;57554;51.546;6.776;2023-05-07T14:09:00;25.40;43.40
70184;DHT22;57554;51.546;6.776;2023-05-07T14:11:32;25.20;43.60
70184;DHT22;57554;51.546;6.776;2023-05-07T14:14:01;25.10;43.90
70184;DHT22;57554;51.546;6.776;2023-05-07T14:16:30;24.90;44.10
70184;DHT22;57554;51.546;6.776;2023-05-07T14:18:56;24.80;44.40
70184;DHT22;57554;51.546;6.776;2023-05-07T14:21:26;24.60;44.80
70184;DHT22;57554;51.546;6.776;2023-05-07T14:23:55;24.50;45.20
70184;DHT22;57554;51.546;6.776;2023-05-07T14:26:24;24.40;45.60
70184;DHT22;57554;51.546;6.776;2023-05-07T14:28:54;24.40;46.40
70184;DHT22;57554;51.546;6.776;2023-05-07T14:31:24;24.30;48.80
70184;DHT22;57554;51.546;6.776;2023-05-07T14:33:50;24.00;51.90
70184;DHT22;57554;51.546;6.776;2023-05-07T14:36:17;23.60;54.30
70184;DHT22;57554;51.546;6.776;2023-05-07T14:38:55;23.30;55.30
70184;DHT22;57554;51.546;6.776;2023-05-07T14:41:27;23.20;56.20
70184;DHT22;57554;51.546;6.776;2023-05-07T14:44:14;23.00;56.70
70184;DHT22;57554;51.546;6.776;2023-05-07T14:46:42;22.90;57.20
70184;DHT22;57554;51.546;6.776;2023-05-07T14:49:08;22.80;57.60
70184;DHT22;57554;51.546;6.776;2023-05-07T14:51:46;22.70;58.50
70184;DHT22;57554;51.546;6.776;2023-05-07T14:54:30;22.70;59.20
70184;DHT22;57554;51.546;6.776;2023-05-07T14:57:04;22.70;59.30
70184;DHT22;57554;51.546;6.776;2023-05-07T14:59:30;22.70;59.20
70184;DHT22;57554;51.546;6.776;2023-05-07T15:01:56;22.70;59.40
70184;DHT22;57554;51.546;6.776;2023-05-07T15:04:25;22.60;60.30
70184;DHT22;57554;51.546;6.776;2023-05-07T15:06:51;22.60;60.40
70184;DHT22;57554;51.546;6.776;2023-05-07T15:09:19;22.70;60.60
70184;DHT22;57554;51.546;6.776;2023-05-07T15:11:50;22.70;61.00
70184;DHT22;57554;51.546;6.776;2023-05-07T15:14:16;22.70;61.40
70184;DHT22;57554;51.546;6.776;2023-05-07T15:16:42;22.80;60.70
70184;DHT22;57554;51.546;6.776;2023-05-07T15:19:08;22.80;60.70
70184;DHT22;57554;51.546;6.776;2023-05-07T15:24:58;22.70;61.20
70184;DHT22;57554;51.546;6.776;2023-05-07T15:27:26;22.70;61.10
70184;DHT22;57554;51.546;6.776;2023-05-07T15:29:52;22.60;61.90
70184;DHT22;57554;51.546;6.776;2023-05-07T15:32:18;22.60;61.90
70184;DHT22;57554;51.546;6.776;2023-05-07T15:34:43;22.60;61.70
70184;DHT22;57554;51.546;6.776;2023-05-07T15:43:46;22.40;61.80
70184;DHT22;57554;51.546;6.776;2023-05-07T15:46:19;22.30;61.80
70184;DHT22;57554;51.546;6.776;2023-05-07T15:48:46;22.30;62.00
70184;DHT22;57554;51.546;6.776;2023-05-07T15:51:14;22.20;62.10
70184;DHT22;57554;51.546;6.776;2023-05-07T15:53:40;22.20;62.00
70184;DHT22;57554;51.546;6.776;2023-05-07T15:56:06;22.20;62.10
70184;DHT22;57554;51.546;6.776;2023-05-07T15:58:32;22.20;62.50
70184;DHT22;57554;51.546;6.776;2023-05-07T16:01:01;22.20;62.50
70184;DHT22;57554;51.546;6.776;2023-05-07T16:03:27;22.20;62.80
70184;DHT22;57554;51.546;6.776;2023-05-07T16:05:54;22.30;63.20
70184;DHT22;57554;51.546;6.776;2023-05-07T16:08:22;22.30;63.10
70184;DHT22;57554;51.546;6.776;2023-05-07T16:10:48;22.30;63.40
70184;DHT22;57554;51.546;6.776;2023-05-07T16:13:14;22.30;63.30
70184;DHT22;57554;51.546;6.776;2023-05-07T16:19:05;22.30;63.70
70184;DHT22;57554;51.546;6.776;2023-05-07T16:21:30;22.30;63.40
70184;DHT22;57554;51.546;6.776;2023-05-07T16:23:57;22.20;63.60
70184;DHT22;57554;51.546;6.776;2023-05-07T16:26:25;22.20;63.60
70184;DHT22;57554;51.546;6.776;2023-05-07T16:28:51;22.20;64.10
70184;DHT22;57554;51.546;6.776;2023-05-07T16:31:17;22.20;63.80
70184;DHT22;57554;51.546;6.776;2023-05-07T16:33:48;22.10;64.00
70184;DHT22;57554;51.546;6.776;2023-05-07T16:36:14;22.10;63.80
70184;DHT22;57554;51.546;6.776;2023-05-07T16:38:39;22.10;63.60
70184;DHT22;57554;51.546;6.776;2023-05-07T16:41:05;22.10;63.50
70184;DHT22;57554;51.546;6.776;2023-05-07T16:43:31;22.10;63.30
70184;DHT22;57554;51.546;6.776;2023-05-07T16:45:56;22.10;63.80
70184;DHT22;57554;51.546;6.776;2023-05-07T16:48:22;22.10;63.90
70184;DHT22;57554;51.546;6.776;2023-05-07T16:50:51;22.10;64.10
70184;DHT22;57554;51.546;6.776;2023-05-07T16:53:16;22.10;64.10
70184;DHT22;57554;51.546;6.776;2023-05-07T16:55:42;22.10;64.20
70184;DHT22;57554;51.546;6.776;2023-05-07T17:01:30;22.10;64.20
70184;DHT22;57554;51.546;6.776;2023-05-07T17:03:57;22.10;64.30
70184;DHT22;57554;51.546;6.776;2023-05-07T17:06:25;22.00;64.10
70184;DHT22;57554;51.546;6.776;2023-05-07T17:08:51;21.90;64.20
70184;DHT22;57554;51.546;6.776;2023-05-07T17:14:39;21.70;64.60
70184;DHT22;57554;51.546;6.776;2023-05-07T17:17:04;21.60;64.90
70184;DHT22;57554;51.546;6.776;2023-05-07T17:19:30;21.50;65.10
70184;DHT22;57554;51.546;6.776;2023-05-07T17:22:05;21.40;65.40
70184;DHT22;57554;51.546;6.776;2023-05-07T17:24:31;21.40;65.90
70184;DHT22;57554;51.546;6.776;2023-05-07T17:26:56;21.40;66.20
70184;DHT22;57554;51.546;6.776;2023-05-07T17:32:44;21.50;66.60
70184;DHT22;57554;51.546;6.776;2023-05-07T17:35:10;21.50;66.60
70184;DHT22;57554;51.546;6.776;2023-05-07T17:37:35;21.60;66.50
70184;DHT22;57554;51.546;6.776;2023-05-07T17:40:01;21.60;66.20
70184;DHT22;57554;51.546;6.776;2023-05-07T17:42:29;21.50;65.90
70184;DHT22;57554;51.546;6.776;2023-05-07T17:44:56;21.40;65.40
70184;DHT22;57554;51.546;6.776;2023-05-07T17:47:24;21.30;65.30
70184;DHT22;57554;51.546;6.776;2023-05-07T17:49:50;21.20;65.20
70184;DHT22;57554;51.546;6.776;2023-05-07T17:52:19;21.20;65.30
70184;DHT22;57554;51.546;6.776;2023-05-07T17:54:45;21.10;65.50
70184;DHT22;57554;51.546;6.776;2023-05-07T17:57:11;21.10;65.10
70184;DHT22;57554;51.546;6.776;2023-05-07T17:59:36;21.00;65.00